createdAt,value
2023-03-14T00:00:56.692Z,98601.81
2023-03-14T00:03:23.739Z,98613.47
2023-03-14T00:05:50.437Z,98618.59
2023-03-14T00:08:17.407Z,98629.09
2023-03-14T00:10:44.044Z,98642.66
2023-03-14T00:13:10.691Z,98649.63
2023-03-14T00:15:37.386Z,98646.88
2023-03-14T00:18:04.097Z,98648.81
2023-03-14T00:20:30.711Z,98666.72
2023-03-14T00:22:57.323Z,98665.84
2023-03-14T00:25:23.907Z,98665.72
2023-03-14T00:27:52.917Z,98669.59
2023-03-14T00:30:19.838Z,98669.69
2023-03-14T00:32:46.487Z,98679.75
2023-03-14T00:35:13.106Z,98682.81
2023-03-14T00:37:39.804Z,98686.69
2023-03-14T00:40:08.339Z,98697.63
2023-03-14T00:42:35.803Z,98699.09
2023-03-14T00:45:02.517Z,98706.88
2023-03-14T00:47:29.193Z,98710.75
2023-03-14T00:49:55.878Z,98714.81
2023-03-14T00:52:22.480Z,98719.72
2023-03-14T00:54:49.074Z,98732.47
2023-03-14T00:57:15.710Z,98739.63
2023-03-14T00:59:42.318Z,98725.69
2023-03-14T01:02:08.979Z,98755.34
2023-03-14T01:04:35.816Z,98758.53
2023-03-14T01:07:02.492Z,98756.94
2023-03-14T01:09:29.226Z,98767.97
2023-03-14T01:11:55.814Z,98762.63
2023-03-14T01:14:22.570Z,98775.84
2023-03-14T01:16:49.211Z,98780.59
2023-03-14T01:19:15.830Z,98786.06
2023-03-14T01:21:42.583Z,98797.94
2023-03-14T01:24:12.678Z,98798.38
2023-03-14T01:26:39.310Z,98809.00
2023-03-14T01:29:05.902Z,98825.50
2023-03-14T01:31:32.604Z,98823.44
2023-03-14T01:33:59.349Z,98827.34
2023-03-14T01:36:25.953Z,98852.66
2023-03-14T01:38:52.724Z,98867.13
2023-03-14T01:41:22.680Z,98866.78
2023-03-14T01:43:50.204Z,98877.25
2023-03-14T01:46:22.492Z,98905.53
2023-03-14T01:48:55.919Z,98906.22
2023-03-14T01:51:25.717Z,98916.94
2023-03-14T01:53:55.889Z,98919.22
2023-03-14T01:56:23.695Z,98933.09
2023-03-14T01:58:53.263Z,98939.28
2023-03-14T02:01:22.421Z,98946.09
2023-03-14T02:03:55.984Z,98952.13
2023-03-14T02:06:30.142Z,98966.34
2023-03-14T02:08:57.352Z,98963.72
2023-03-14T02:11:29.603Z,98977.72
2023-03-14T02:13:58.719Z,98988.19
2023-03-14T02:16:25.727Z,98985.19
2023-03-14T02:18:52.624Z,98990.22
2023-03-14T02:22:03.629Z,98998.63
2023-03-14T02:24:48.050Z,98998.50
2023-03-14T02:27:17.174Z,99014.75
2023-03-14T02:29:57.460Z,99026.63
2023-03-14T02:32:26.012Z,99026.94
2023-03-14T02:35:01.341Z,99035.47
2023-03-14T02:37:47.057Z,99046.41
2023-03-14T02:40:13.755Z,99050.75
2023-03-14T02:42:40.495Z,99063.91
2023-03-14T02:45:10.034Z,99066.09
2023-03-14T02:47:42.518Z,99060.63
2023-03-14T02:50:18.810Z,99033.41
2023-03-14T02:52:45.507Z,99034.47
2023-03-14T02:55:12.109Z,99009.88
2023-03-14T02:57:38.702Z,99019.94
2023-03-14T03:00:06.328Z,99038.06
2023-03-14T03:02:33.541Z,99054.25
2023-03-14T03:05:00.194Z,99043.31
2023-03-14T03:07:26.844Z,99078.19
2023-03-14T03:09:53.451Z,99084.13
2023-03-14T03:12:20.050Z,99098.59
2023-03-14T03:14:46.700Z,99104.38
2023-03-14T03:17:13.320Z,99109.38
2023-03-14T03:19:40.006Z,99106.50
2023-03-14T03:22:06.718Z,99120.53
2023-03-14T03:24:33.386Z,99128.38
2023-03-14T03:27:00.025Z,99123.84
2023-03-14T03:29:26.627Z,99145.06
2023-03-14T03:31:54.087Z,99157.78
2023-03-14T03:34:20.856Z,99155.84
2023-03-14T03:36:47.475Z,99173.88
2023-03-14T03:39:14.109Z,99188.66
2023-03-14T03:41:40.713Z,99195.03
2023-03-14T03:44:07.453Z,99219.19
2023-03-14T03:46:34.075Z,99233.50
2023-03-14T03:49:01.370Z,99231.31
2023-03-14T03:51:28.334Z,99213.66
2023-03-14T03:53:55.006Z,99224.59
2023-03-14T03:56:21.741Z,99240.03
2023-03-14T03:58:48.356Z,99238.63
2023-03-14T04:01:15.074Z,99254.53
2023-03-14T04:03:41.898Z,99264.66
2023-03-14T04:06:12.077Z,99268.53
2023-03-14T04:08:40.079Z,99266.13
2023-03-14T04:11:06.740Z,99286.38
2023-03-14T04:13:33.718Z,99301.97
2023-03-14T04:16:00.437Z,99317.56
2023-03-14T04:18:27.541Z,99322.91
2023-03-14T04:20:55.786Z,99339.13
2023-03-14T04:23:25.236Z,99352.31
2023-03-14T04:25:53.082Z,99349.91
2023-03-14T04:28:20.079Z,99347.50
2023-03-14T04:30:46.813Z,99361.34
2023-03-14T04:33:18.262Z,99359.41
2023-03-14T04:35:46.124Z,99369.72
2023-03-14T04:38:13.359Z,99379.69
2023-03-14T04:40:43.305Z,99388.50
2023-03-14T04:43:12.201Z,99392.56
2023-03-14T04:45:42.660Z,99402.19
2023-03-14T04:48:09.369Z,99405.25
2023-03-14T04:50:36.143Z,99421.16
2023-03-14T04:53:02.835Z,99433.19
2023-03-14T04:55:29.440Z,99423.53
2023-03-14T04:57:56.045Z,99432.06
2023-03-14T05:00:23.102Z,99443.63
2023-03-14T05:02:49.868Z,99444.91
2023-03-14T05:05:16.579Z,99452.31
2023-03-14T05:07:44.332Z,99454.72
2023-03-14T05:10:11.517Z,99453.91
2023-03-14T05:12:38.199Z,99460.81
2023-03-14T05:15:05.605Z,99479.47
2023-03-14T05:17:34.106Z,99497.41
2023-03-14T05:20:00.743Z,99497.59
2023-03-14T05:22:27.412Z,99509.13
2023-03-14T05:24:57.751Z,99501.91
2023-03-14T05:27:24.475Z,99514.59
2023-03-14T05:29:51.130Z,99516.34
2023-03-14T05:32:17.763Z,99518.94
2023-03-14T05:34:44.397Z,99514.09
2023-03-14T05:37:11.008Z,99521.78
2023-03-14T05:39:37.596Z,99529.81
2023-03-14T05:42:04.301Z,99531.25
2023-03-14T05:44:32.093Z,99531.88
2023-03-14T05:46:58.681Z,99541.19
2023-03-14T05:49:25.448Z,99534.13
2023-03-14T05:51:52.326Z,99545.03
2023-03-14T05:54:18.945Z,99551.44
2023-03-14T05:56:45.552Z,99559.94
2023-03-14T05:59:13.382Z,99557.03
2023-03-14T06:01:40.125Z,99567.28
2023-03-14T06:04:06.809Z,99572.06
2023-03-14T06:06:33.491Z,99586.03
2023-03-14T06:09:00.179Z,99586.63
2023-03-14T06:11:26.977Z,99590.50
2023-03-14T06:13:53.654Z,99598.97
2023-03-14T06:16:21.475Z,99601.53
2023-03-14T06:18:50.010Z,99602.66
2023-03-14T06:21:18.429Z,99616.78
2023-03-14T06:23:46.482Z,99623.66
2023-03-14T06:26:13.274Z,99631.34
2023-03-14T06:28:40.122Z,99644.78
2023-03-14T06:31:06.947Z,99644.44
2023-03-14T06:33:33.600Z,99643.31
2023-03-14T06:36:01.294Z,99647.28
2023-03-14T06:38:27.900Z,99651.75
2023-03-14T06:40:54.577Z,99657.50
2023-03-14T06:43:22.253Z,99674.69
2023-03-14T06:45:48.935Z,99673.06
2023-03-14T06:48:15.646Z,99672.06
2023-03-14T06:50:43.040Z,99676.72
2023-03-14T06:53:09.901Z,99681.34
2023-03-14T06:55:36.501Z,99692.25
2023-03-14T06:58:03.114Z,99693.38
2023-03-14T07:00:29.762Z,99695.59
2023-03-14T07:02:56.415Z,99694.78
2023-03-14T07:05:23.070Z,99702.97
2023-03-14T07:07:49.667Z,99716.91
2023-03-14T07:10:16.626Z,99739.53
2023-03-14T07:12:43.193Z,99736.59
2023-03-14T07:15:18.185Z,99741.25
2023-03-14T07:17:45.661Z,99756.19
2023-03-14T07:20:12.316Z,99762.94
2023-03-14T07:22:38.912Z,99770.00
2023-03-14T07:25:06.431Z,99768.09
2023-03-14T07:27:33.063Z,99772.41
2023-03-14T07:29:59.694Z,99775.63
2023-03-14T07:32:26.685Z,99778.06
2023-03-14T07:34:53.319Z,99776.66
2023-03-14T07:37:19.997Z,99789.66
2023-03-14T07:39:46.663Z,99793.50
2023-03-14T07:42:13.311Z,99801.69
2023-03-14T07:44:40.146Z,99805.72
2023-03-14T07:47:07.004Z,99807.34
2023-03-14T07:49:33.722Z,99812.78
2023-03-14T07:52:00.393Z,99833.16
2023-03-14T07:54:27.452Z,99822.66
2023-03-14T07:56:54.116Z,99836.16
2023-03-14T07:59:20.926Z,99835.16
2023-03-14T08:01:47.565Z,99840.97
2023-03-14T08:04:14.405Z,99850.34
2023-03-14T08:06:41.278Z,99864.28
2023-03-14T08:09:07.966Z,99857.25
2023-03-14T08:11:34.661Z,99855.41
2023-03-14T08:14:01.318Z,99876.81
2023-03-14T08:16:27.971Z,99866.88
2023-03-14T08:18:54.620Z,99877.19
2023-03-14T08:21:21.335Z,99880.41
2023-03-14T08:23:48.060Z,99877.66
2023-03-14T08:26:14.649Z,99882.50
2023-03-14T08:28:41.386Z,99875.94
2023-03-14T08:31:08.223Z,99887.69
2023-03-14T08:33:35.139Z,99885.44
2023-03-14T08:36:02.320Z,99896.34
2023-03-14T08:38:29.457Z,99900.38
2023-03-14T08:41:01.145Z,99902.78
2023-03-14T08:43:29.034Z,99917.09
2023-03-14T08:45:59.150Z,99922.03
2023-03-14T08:48:25.812Z,99918.19
2023-03-14T08:50:52.524Z,99922.22
2023-03-14T08:53:19.743Z,99924.84
2023-03-14T08:55:46.356Z,99932.09
2023-03-14T08:58:13.526Z,99933.91
2023-03-14T09:00:40.277Z,99939.53
2023-03-14T09:03:06.969Z,99940.56
2023-03-14T09:05:35.380Z,99948.00
2023-03-14T09:08:02.397Z,99943.22
2023-03-14T09:10:29.085Z,99950.81
2023-03-14T09:12:55.868Z,99943.59
2023-03-14T09:15:23.213Z,99944.56
2023-03-14T09:17:49.873Z,99937.72
2023-03-14T09:20:16.931Z,99939.06
2023-03-14T09:22:43.871Z,99928.50
2023-03-14T09:25:11.626Z,99935.31
2023-03-14T09:27:38.310Z,99936.16
2023-03-14T09:30:05.561Z,99935.38
2023-03-14T09:32:33.020Z,99948.78
2023-03-14T09:35:00.184Z,99942.56
2023-03-14T09:37:26.831Z,99946.78
2023-03-14T09:39:53.615Z,99950.19
2023-03-14T09:42:24.244Z,99955.41
2023-03-14T09:44:57.885Z,99954.91
2023-03-14T09:47:26.106Z,99969.19
2023-03-14T09:49:54.060Z,99980.41
2023-03-14T09:52:24.662Z,99978.59
2023-03-14T09:55:06.760Z,99981.63
2023-03-14T09:57:36.500Z,99994.38
2023-03-14T10:00:15.123Z,99992.81
2023-03-14T10:02:47.081Z,99989.88
2023-03-14T10:05:20.140Z,100006.34
2023-03-14T10:08:00.295Z,100011.81
2023-03-14T10:10:28.149Z,100013.25
2023-03-14T10:13:14.790Z,100012.06
2023-03-14T10:15:41.686Z,100027.06
2023-03-14T10:18:16.500Z,100039.75
2023-03-14T10:20:45.861Z,100046.53
2023-03-14T10:23:12.399Z,100044.94
2023-03-14T10:25:42.694Z,100049.78
2023-03-14T10:28:25.120Z,100044.19
2023-03-14T10:30:51.670Z,100044.09
2023-03-14T10:33:18.219Z,100036.38
2023-03-14T10:35:45.732Z,100032.69
2023-03-14T10:38:17.886Z,100031.06
2023-03-14T10:40:53.828Z,100040.72
2023-03-14T10:43:27.809Z,100040.25
2023-03-14T10:46:00.210Z,100045.56
2023-03-14T10:48:36.129Z,100051.66
2023-03-14T10:51:18.768Z,100033.41
2023-03-14T10:53:56.822Z,100045.38
2023-03-14T10:56:25.513Z,100052.53
2023-03-14T10:58:56.864Z,100049.75
2023-03-14T11:02:00.672Z,100049.97
2023-03-14T11:04:27.262Z,100052.81
2023-03-14T11:06:57.097Z,100042.69
2023-03-14T11:10:04.793Z,100054.03
2023-03-14T11:12:43.051Z,100055.75
2023-03-14T11:15:25.026Z,100060.00
2023-03-14T11:18:22.477Z,100057.19
2023-03-14T11:21:04.533Z,100056.19
2023-03-14T11:23:47.825Z,100060.25
2023-03-14T11:26:26.502Z,100056.13
2023-03-14T11:28:59.429Z,100051.06
2023-03-14T11:31:34.944Z,100048.50
2023-03-14T11:34:19.769Z,100049.69
2023-03-14T11:36:49.334Z,100040.59
2023-03-14T11:39:18.965Z,100043.78
2023-03-14T11:41:48.766Z,100038.94
2023-03-14T11:44:25.499Z,100053.63
2023-03-14T11:47:00.550Z,100053.50
2023-03-14T11:49:47.203Z,100055.66
2023-03-14T11:52:25.896Z,100044.88
2023-03-14T11:55:38.146Z,100036.94
2023-03-14T11:58:14.139Z,100040.19
2023-03-14T12:00:41.881Z,100027.34
2023-03-14T12:03:08.509Z,100043.84
2023-03-14T12:05:48.793Z,100042.38
2023-03-14T12:08:33.836Z,100053.22
2023-03-14T12:11:11.308Z,100042.13
2023-03-14T12:13:40.675Z,100041.44
2023-03-14T12:16:25.826Z,100046.47
2023-03-14T12:18:54.396Z,100042.66
2023-03-14T12:21:21.785Z,100055.47
2023-03-14T12:23:57.732Z,100052.84
2023-03-14T12:26:26.899Z,100058.03
2023-03-14T12:29:13.155Z,100058.84
2023-03-14T12:31:44.629Z,100067.88
2023-03-14T12:34:11.309Z,100074.06
2023-03-14T12:36:54.309Z,100077.81
2023-03-14T12:39:38.846Z,100076.28
2023-03-14T12:42:44.592Z,100078.75
2023-03-14T12:45:14.770Z,100085.59
2023-03-14T12:47:47.073Z,100080.84
2023-03-14T12:50:20.436Z,100093.00
2023-03-14T12:53:05.474Z,100077.50
2023-03-14T12:55:40.741Z,100080.81
2023-03-14T12:58:15.051Z,100084.44
2023-03-14T13:00:42.817Z,100090.28
2023-03-14T13:03:29.295Z,100089.56
2023-03-14T13:06:02.966Z,100092.16
2023-03-14T13:08:40.790Z,100097.72
2023-03-14T13:11:30.256Z,100100.34
2023-03-14T13:14:00.143Z,100098.75
2023-03-14T13:16:26.882Z,100098.34
2023-03-14T13:19:13.247Z,100095.53
2023-03-14T13:21:39.988Z,100102.84
2023-03-14T13:24:26.138Z,100103.38
2023-03-14T13:26:57.365Z,100102.97
2023-03-14T13:29:29.820Z,100102.75
2023-03-14T13:32:18.195Z,100095.56
2023-03-14T13:34:44.878Z,100101.91
2023-03-14T13:37:18.337Z,100102.75
2023-03-14T13:39:51.454Z,100094.50
2023-03-14T13:42:19.608Z,100104.78
2023-03-14T13:44:48.245Z,100095.91
2023-03-14T13:47:18.211Z,100104.50
2023-03-14T13:49:46.189Z,100109.16
2023-03-14T13:52:36.207Z,100094.28
2023-03-14T13:55:06.132Z,100109.44
2023-03-14T13:57:55.552Z,100112.44
2023-03-14T14:00:28.268Z,100110.63
2023-03-14T14:02:57.320Z,100113.63
2023-03-14T14:05:29.002Z,100120.44
2023-03-14T14:07:56.483Z,100118.28
2023-03-14T14:10:23.680Z,100123.06
2023-03-14T14:12:58.614Z,100119.72
2023-03-14T14:15:29.589Z,100125.94
2023-03-14T14:18:06.086Z,100126.59
2023-03-14T14:20:38.954Z,100126.59
2023-03-14T14:23:10.871Z,100128.84
2023-03-14T14:25:37.991Z,100138.72
2023-03-14T14:28:21.916Z,100124.47
2023-03-14T14:31:26.640Z,100134.16
2023-03-14T14:33:56.906Z,100134.44
2023-03-14T14:36:25.157Z,100124.88
2023-03-14T14:38:53.790Z,100135.16
2023-03-14T14:41:21.549Z,100140.59
2023-03-14T14:43:48.581Z,100161.63
2023-03-14T14:46:19.923Z,100161.28
2023-03-14T14:48:50.597Z,100177.91
2023-03-14T14:51:27.763Z,100171.56
2023-03-14T14:54:04.268Z,100171.78
2023-03-14T14:56:31.126Z,100176.19
2023-03-14T14:59:03.998Z,100195.16
2023-03-14T15:01:43.297Z,100224.22
2023-03-14T15:04:15.947Z,100222.44
2023-03-14T15:06:49.242Z,100222.03
2023-03-14T15:09:18.221Z,100225.06
2023-03-14T15:11:45.420Z,100225.41
2023-03-14T15:14:12.242Z,100223.84
2023-03-14T15:16:40.234Z,100235.66
2023-03-14T15:19:24.216Z,100226.38
2023-03-14T15:21:53.332Z,100233.56
2023-03-14T15:24:20.531Z,100219.84
2023-03-14T15:26:47.299Z,100226.84
2023-03-14T15:29:14.012Z,100234.09
2023-03-14T15:31:44.137Z,100233.94
2023-03-14T15:34:11.249Z,100242.50
2023-03-14T15:36:39.269Z,100251.88
2023-03-14T15:39:07.880Z,100253.34
2023-03-14T15:41:35.166Z,100260.78
2023-03-14T15:44:02.271Z,100263.19
2023-03-14T15:46:31.425Z,100260.28
2023-03-14T15:48:58.225Z,100258.34
2023-03-14T15:51:24.943Z,100262.22
2023-03-14T15:53:52.817Z,100263.06
2023-03-14T15:56:21.283Z,100259.59
2023-03-14T15:58:48.089Z,100258.31
2023-03-14T16:01:17.166Z,100268.25
2023-03-14T16:03:46.091Z,100268.00
2023-03-14T16:06:13.944Z,100262.22
2023-03-14T16:08:40.786Z,100276.88
2023-03-14T16:11:07.511Z,100278.19
2023-03-14T16:13:34.177Z,100277.16
2023-03-14T16:16:03.105Z,100280.63
2023-03-14T16:18:32.580Z,100283.16
2023-03-14T16:21:01.791Z,100287.09
2023-03-14T16:23:29.515Z,100289.00
2023-03-14T16:25:56.780Z,100287.31
2023-03-14T16:28:23.841Z,100297.34
2023-03-14T16:30:50.649Z,100291.84
2023-03-14T16:33:18.022Z,100298.44
2023-03-14T16:35:57.723Z,100299.25
2023-03-14T16:38:25.121Z,100297.47
2023-03-14T16:41:03.913Z,100299.25
2023-03-14T16:43:30.902Z,100293.19
2023-03-14T16:46:00.030Z,100311.19
2023-03-14T16:48:30.437Z,100309.59
2023-03-14T16:50:57.834Z,100316.69
2023-03-14T16:53:27.595Z,100325.72
2023-03-14T16:55:54.244Z,100319.25
2023-03-14T16:58:21.416Z,100318.03
2023-03-14T17:00:48.781Z,100321.78
2023-03-14T17:03:17.305Z,100326.41
2023-03-14T17:05:49.021Z,100324.88
2023-03-14T17:08:18.594Z,100338.50
2023-03-14T17:10:45.974Z,100337.13
2023-03-14T17:13:13.146Z,100338.94
2023-03-14T17:15:40.066Z,100338.31
2023-03-14T17:18:07.267Z,100342.69
2023-03-14T17:20:34.403Z,100340.75
2023-03-14T17:23:01.047Z,100342.56
2023-03-14T17:25:27.755Z,100346.13
2023-03-14T17:27:54.590Z,100351.44
2023-03-14T17:30:21.403Z,100360.81
2023-03-14T17:32:48.055Z,100370.81
2023-03-14T17:35:14.829Z,100369.03
2023-03-14T17:37:42.128Z,100370.31
2023-03-14T17:40:09.748Z,100373.53
2023-03-14T17:42:36.381Z,100372.06
2023-03-14T17:45:03.298Z,100378.50
2023-03-14T17:47:30.118Z,100376.44
2023-03-14T17:49:56.889Z,100387.09
2023-03-14T17:52:24.831Z,100387.41
2023-03-14T17:54:51.948Z,100396.59
2023-03-14T17:57:18.620Z,100386.72
2023-03-14T17:59:45.322Z,100394.28
2023-03-14T18:02:15.224Z,100396.38
2023-03-14T18:04:42.053Z,100394.59
2023-03-14T18:07:09.125Z,100405.88
2023-03-14T18:09:35.806Z,100401.69
2023-03-14T18:12:08.110Z,100417.63
2023-03-14T18:14:36.388Z,100417.63
2023-03-14T18:17:04.106Z,100430.66
2023-03-14T18:19:31.937Z,100431.00
2023-03-14T18:21:58.855Z,100439.84
2023-03-14T18:24:26.767Z,100449.84
2023-03-14T18:26:54.444Z,100444.66
2023-03-14T18:29:21.700Z,100448.84
2023-03-14T18:31:48.395Z,100451.09
2023-03-14T18:34:15.404Z,100453.84
2023-03-14T18:36:42.612Z,100453.03
2023-03-14T18:39:10.386Z,100465.44
2023-03-14T18:41:37.261Z,100472.19
2023-03-14T18:44:04.289Z,100478.00
2023-03-14T18:46:31.098Z,100476.00
2023-03-14T18:49:03.695Z,100475.63
2023-03-14T18:51:32.976Z,100478.81
2023-03-14T18:54:10.001Z,100474.25
2023-03-14T18:56:39.477Z,100473.25
2023-03-14T18:59:07.216Z,100475.81
2023-03-14T19:01:34.419Z,100479.19
2023-03-14T19:04:02.649Z,100476.56
2023-03-14T19:06:33.911Z,100481.56
2023-03-14T19:09:01.982Z,100482.47
2023-03-14T19:11:28.761Z,100493.44
2023-03-14T19:13:56.906Z,100486.16
2023-03-14T19:16:24.958Z,100490.63
2023-03-14T19:18:55.803Z,100493.66
2023-03-14T19:21:31.267Z,100498.94
2023-03-14T19:23:58.008Z,100499.59
2023-03-14T19:26:24.776Z,100516.53
2023-03-14T19:28:55.224Z,100514.88
2023-03-14T19:31:22.106Z,100513.28
2023-03-14T19:33:49.217Z,100516.63
2023-03-14T19:36:21.459Z,100517.25
2023-03-14T19:38:49.555Z,100518.34
2023-03-14T19:41:16.387Z,100526.56
2023-03-14T19:43:43.024Z,100520.59
2023-03-14T19:46:09.841Z,100535.72
2023-03-14T19:48:37.559Z,100527.81
2023-03-14T19:51:04.584Z,100542.91
2023-03-14T19:53:31.936Z,100538.56
2023-03-14T19:55:58.634Z,100538.56
2023-03-14T19:58:25.351Z,100549.53
2023-03-14T20:00:52.349Z,100552.56
2023-03-14T20:03:19.226Z,100559.16
2023-03-14T20:05:47.277Z,100563.00
2023-03-14T20:08:14.066Z,100570.41
2023-03-14T20:10:41.257Z,100575.91
2023-03-14T20:13:19.145Z,100573.97
2023-03-14T20:15:47.934Z,100572.44
2023-03-14T20:18:14.671Z,100569.81
2023-03-14T20:20:41.835Z,100575.91
2023-03-14T20:23:10.023Z,100582.50
2023-03-14T20:25:37.880Z,100586.44
2023-03-14T20:28:05.304Z,100589.78
2023-03-14T20:30:33.081Z,100572.88
2023-03-14T20:33:04.432Z,100584.63
2023-03-14T20:35:31.626Z,100586.66
2023-03-14T20:37:58.288Z,100599.34
2023-03-14T20:40:29.061Z,100591.72
2023-03-14T20:42:57.415Z,100601.63
2023-03-14T20:45:24.084Z,100593.84
2023-03-14T20:47:50.960Z,100597.78
2023-03-14T20:50:17.815Z,100606.06
2023-03-14T20:52:45.425Z,100597.13
2023-03-14T20:55:13.466Z,100599.16
2023-03-14T20:57:41.220Z,100590.22
2023-03-14T21:00:08.726Z,100600.22
2023-03-14T21:02:35.447Z,100599.50
2023-03-14T21:05:02.622Z,100602.84
2023-03-14T21:07:32.971Z,100602.31
2023-03-14T21:09:59.737Z,100599.38
2023-03-14T21:12:27.104Z,100606.97
2023-03-14T21:14:56.273Z,100597.66
2023-03-14T21:17:23.049Z,100610.22
2023-03-14T21:19:49.772Z,100607.47
2023-03-14T21:22:18.581Z,100603.94
2023-03-14T21:24:46.237Z,100614.66
2023-03-14T21:27:13.000Z,100612.00
2023-03-14T21:29:39.987Z,100612.63
2023-03-14T21:32:08.826Z,100618.44
2023-03-14T21:34:35.514Z,100609.00
2023-03-14T21:37:02.878Z,100605.22
2023-03-14T21:39:30.584Z,100595.91
2023-03-14T21:41:57.290Z,100608.47
2023-03-14T21:44:24.902Z,100612.31
2023-03-14T21:46:51.791Z,100615.34
2023-03-14T21:49:18.816Z,100622.22
2023-03-14T21:51:48.483Z,100627.16
2023-03-14T21:54:16.780Z,100637.56
2023-03-14T21:56:44.286Z,100635.94
2023-03-14T21:59:11.773Z,100649.09
2023-03-14T22:01:39.370Z,100654.06
2023-03-14T22:04:06.191Z,100655.22
2023-03-14T22:06:35.091Z,100658.53
2023-03-14T22:09:03.214Z,100655.88
2023-03-14T22:11:29.902Z,100658.09
2023-03-14T22:13:57.069Z,100657.00
2023-03-14T22:16:23.705Z,100651.00
2023-03-14T22:18:50.529Z,100653.00
2023-03-14T22:21:17.125Z,100660.97
2023-03-14T22:23:43.718Z,100660.44
2023-03-14T22:26:10.405Z,100672.47
2023-03-14T22:28:36.984Z,100682.56
2023-03-14T22:31:04.000Z,100671.38
2023-03-14T22:33:31.408Z,100682.31
2023-03-14T22:35:58.421Z,100678.00
2023-03-14T22:38:25.501Z,100679.38
2023-03-14T22:40:52.435Z,100674.25
2023-03-14T22:43:19.637Z,100674.88
2023-03-14T22:45:46.581Z,100678.69
2023-03-14T22:48:13.237Z,100687.97
2023-03-14T22:50:40.577Z,100680.34
2023-03-14T22:53:07.270Z,100687.13
2023-03-14T22:55:34.107Z,100688.75
2023-03-14T22:58:00.932Z,100689.88
2023-03-14T23:00:28.010Z,100695.09
2023-03-14T23:02:54.864Z,100697.28
2023-03-14T23:05:22.076Z,100683.66
2023-03-14T23:07:48.744Z,100689.63
2023-03-14T23:10:16.032Z,100686.38
2023-03-14T23:12:45.245Z,100678.47
2023-03-14T23:15:15.624Z,100670.84
2023-03-14T23:17:43.839Z,100671.72
2023-03-14T23:20:11.846Z,100664.09
2023-03-14T23:22:38.737Z,100658.13
2023-03-14T23:25:08.931Z,100657.09
2023-03-14T23:27:36.038Z,100666.38
2023-03-14T23:30:03.848Z,100653.81
2023-03-14T23:32:31.458Z,100665.91
2023-03-14T23:34:58.405Z,100671.38
2023-03-14T23:37:25.976Z,100673.81
2023-03-14T23:39:52.776Z,100674.38
2023-03-14T23:42:19.488Z,100659.41
2023-03-14T23:44:46.629Z,100662.19
2023-03-14T23:47:13.374Z,100664.66
2023-03-14T23:49:40.078Z,100675.56
2023-03-14T23:52:06.902Z,100680.75
2023-03-14T23:54:33.762Z,100682.97
2023-03-14T23:57:04.562Z,100667.69
2023-03-14T23:59:33.967Z,100669.59
